Oppenheim, New York
Current Conditions -  °F | °C
As of 4:35 AM on Friday 24 Oct 2014 (Local Time) from KNY0 Reporting Station
Overcast Overcast  
Wind Chill:   Ceiling: 1900
Heat Index:   Visibility: 10mi
Dew Point:   Wind: 8mph
Humidity: 94%   Direction: 280°W
Pressure: 29.81"   Gusts: NA
Location:  43.1048°N, 74.7138°W
Report Text: KNY0 240835Z AUTO 28007KT 10SM OVC019 06/05 A2981 RMK AO2 T00580049
Loading
Personal Weather Stations






























Interactive Weather Map
Tropical Storm Tracking
New forecast layout! Learn more

10-Day Weather Forecast

Advertisements
Track Severe Weather on mobile